Time;durP1;ratioP1;P1;durP2;ratioP2;P2;SDS_P1;SDS_P2;PMS_P1;PMS_P2;Temp;Humidity;BMP_temperature;BMP_pressure;BME280_temperature;BME280_humidity;BME280_pressure;Samples;Min_cycle;Max_cycle;Signal;HPM_P1;HPM_P2
2023/08/19 00:01:29;;;;;;;29.75;26.63;;;23.00;99.90;;;;;;5031262;28;20033;-82
2023/08/19 00:03:55;;;;;;;29.35;26.00;;;23.00;99.90;;;;;;5031333;28;20398;-82
2023/08/19 00:06:40;;;;;;;31.40;26.77;;;22.90;99.90;;;;;;5030740;28;20389;-82
2023/08/19 00:09:08;;;;;;;29.08;25.98;;;23.00;99.90;;;;;;5031113;28;20176;-82
2023/08/19 00:11:38;;;;;;;29.52;25.92;;;23.00;99.90;;;;;;5031153;28;20029;-82
2023/08/19 00:14:05;;;;;;;28.58;25.60;;;23.00;99.90;;;;;;5031913;28;20054;-82
2023/08/19 00:16:34;;;;;;;29.80;25.70;;;22.90;99.90;;;;;;5034633;28;20029;-82
2023/08/19 00:19:01;;;;;;;29.97;26.43;;;22.90;99.90;;;;;;5034687;28;20051;-82
2023/08/19 00:21:26;;;;;;;29.33;26.05;;;22.90;99.90;;;;;;5034003;28;20021;-82
2023/08/19 00:23:52;;;;;;;28.38;25.23;;;22.90;99.90;;;;;;5034285;28;20377;-82
2023/08/19 00:26:17;;;;;;;29.45;26.35;;;22.90;99.90;;;;;;5034659;28;20025;-82
2023/08/19 00:28:43;;;;;;;32.15;27.05;;;23.00;99.90;;;;;;5033577;28;20030;-82
2023/08/19 00:31:09;;;;;;;31.27;25.80;;;22.90;99.90;;;;;;5034290;28;20053;-82
2023/08/19 00:33:35;;;;;;;26.52;23.73;;;22.90;99.90;;;;;;5034194;28;20025;-82
2023/08/19 00:36:02;;;;;;;27.23;24.20;;;23.00;99.90;;;;;;5033610;28;20441;-82
2023/08/19 00:38:28;;;;;;;28.50;24.40;;;22.90;99.90;;;;;;5034694;28;20030;-82
2023/08/19 00:40:53;;;;;;;27.92;23.85;;;22.90;99.90;;;;;;5033690;28;20026;-82
2023/08/19 00:43:19;;;;;;;28.60;24.73;;;22.90;99.90;;;;;;5034407;28;20024;-82
2023/08/19 00:45:47;;;;;;;28.52;25.25;;;22.90;99.90;;;;;;5033944;28;20031;-82
2023/08/19 00:48:15;;;;;;;29.85;26.42;;;22.90;99.90;;;;;;5033443;28;20090;-82
2023/08/19 00:50:41;;;;;;;28.58;25.20;;;23.00;99.90;;;;;;5033779;28;20428;-83
2023/08/19 00:53:08;;;;;;;28.17;25.30;;;22.90;99.90;;;;;;5034319;28;20029;-82
2023/08/19 00:55:34;;;;;;;28.55;25.25;;;22.90;99.90;;;;;;5033282;28;20033;-82
2023/08/19 00:58:03;;;;;;;28.92;26.05;;;22.90;99.90;;;;;;5034085;28;20480;-82
2023/08/19 01:00:30;;;;;;;29.98;26.70;;;22.90;99.90;;;;;;5033706;28;20033;-82
2023/08/19 01:02:56;;;;;;;27.65;24.63;;;22.90;99.90;;;;;;5033227;28;20026;-82
2023/08/19 01:05:25;;;;;;;29.65;26.25;;;22.70;99.90;;;;;;5033854;28;20420;-82
2023/08/19 01:07:57;;;;;;;28.33;25.27;;;22.90;99.90;;;;;;5033619;28;20026;-82
2023/08/19 01:10:44;;;;;;;29.83;26.55;;;22.90;99.90;;;;;;5033562;28;20033;-81
2023/08/19 01:13:15;;;;;;;30.50;26.55;;;22.90;99.90;;;;;;5034120;28;20125;-81
2023/08/19 01:15:53;;;;;;;27.65;24.88;;;22.90;99.90;;;;;;5033395;28;20033;-81
2023/08/19 01:18:19;;;;;;;31.05;27.73;;;22.80;99.90;;;;;;5033463;28;20084;-81
2023/08/19 01:20:46;;;;;;;30.70;27.55;;;22.90;99.90;;;;;;5033510;28;20104;-83
2023/08/19 01:23:19;;;;;;;32.03;28.60;;;22.80;99.90;;;;;;5032991;28;20105;-82
2023/08/19 01:25:45;;;;;;;31.05;27.85;;;22.80;99.90;;;;;;5032578;28;20052;-82
2023/08/19 01:28:11;;;;;;;30.67;27.38;;;23.10;99.90;;;;;;5033266;28;20032;-82
2023/08/19 01:30:37;;;;;;;34.75;27.52;;;22.80;99.90;;;;;;5032189;28;20460;-83
2023/08/19 01:33:04;;;;;;;31.77;27.20;;;22.70;99.90;;;;;;5033475;28;20034;-82
2023/08/19 01:35:35;;;;;;;35.58;29.70;;;22.80;99.90;;;;;;5033069;28;20477;-82
2023/08/19 01:38:09;;;;;;;31.08;27.77;;;22.80;99.90;;;;;;5032589;28;20021;-82
2023/08/19 01:40:36;;;;;;;32.65;27.70;;;22.80;99.90;;;;;;5033014;28;20025;-82
2023/08/19 01:43:04;;;;;;;32.47;28.23;;;22.80;99.90;;;;;;5033054;28;20030;-83
2023/08/19 01:45:30;;;;;;;30.90;27.60;;;22.80;99.90;;;;;;5032302;28;20029;-80
2023/08/19 01:47:56;;;;;;;32.63;28.50;;;23.00;99.90;;;;;;5033227;28;20112;-83
2023/08/19 01:50:22;;;;;;;31.90;28.45;;;22.80;99.90;;;;;;5033048;28;20191;-83
2023/08/19 01:52:48;;;;;;;34.03;28.15;;;22.70;99.90;;;;;;5031886;28;20099;-83
2023/08/19 01:55:13;;;;;;;30.77;27.38;;;22.70;99.90;;;;;;5032979;28;20484;-82
2023/08/19 01:57:39;;;;;;;36.65;29.10;;;22.80;99.90;;;;;;5032584;28;20095;-82
2023/08/19 02:00:07;;;;;;;31.52;28.15;;;22.70;99.90;;;;;;5033783;28;20029;-82
2023/08/19 02:02:32;;;;;;;31.80;28.38;;;22.70;99.90;;;;;;5032562;28;20511;-82
2023/08/19 02:04:58;;;;;;;30.88;26.88;;;22.70;99.90;;;;;;5032754;28;20026;-82
2023/08/19 02:07:23;;;;;;;36.35;29.48;;;22.70;99.90;;;;;;5032123;28;20049;-83
2023/08/19 02:09:49;;;;;;;32.40;29.05;;;22.70;99.90;;;;;;5032290;28;20037;-82
2023/08/19 02:12:14;;;;;;;32.22;28.20;;;22.70;99.90;;;;;;5032461;28;20021;-82
2023/08/19 02:14:40;;;;;;;35.30;27.80;;;22.70;99.90;;;;;;5032147;28;20136;-82
2023/08/19 02:17:05;;;;;;;31.08;27.40;;;22.70;99.90;;;;;;5032803;28;20022;-82
2023/08/19 02:19:31;;;;;;;32.05;28.27;;;22.80;99.90;;;;;;5031536;28;20079;-82
2023/08/19 02:21:57;;;;;;;32.13;28.63;;;22.70;99.90;;;;;;5032380;28;20026;-82
2023/08/19 02:24:22;;;;;;;35.00;29.52;;;22.70;99.90;;;;;;5032349;28;20470;-82
2023/08/19 02:26:48;;;;;;;31.77;27.23;;;22.70;99.90;;;;;;5031636;28;20112;-82
2023/08/19 02:29:14;;;;;;;31.10;27.77;;;22.80;99.90;;;;;;5032532;28;20128;-82
2023/08/19 02:31:39;;;;;;;33.25;29.00;;;22.70;99.90;;;;;;5031801;28;20053;-82
2023/08/19 02:34:05;;;;;;;33.10;28.50;;;22.80;99.90;;;;;;5031819;28;20032;-83
2023/08/19 02:36:31;;;;;;;35.13;29.48;;;22.70;99.90;;;;;;5031919;28;20025;-82
2023/08/19 02:38:57;;;;;;;30.83;27.63;;;22.70;99.90;;;;;;5032105;28;20155;-82
2023/08/19 02:41:23;;;;;;;33.80;27.67;;;22.70;99.90;;;;;;5031440;28;20421;-82
2023/08/19 02:43:50;;;;;;;31.50;28.08;;;22.70;99.90;;;;;;5032026;28;20026;-82
2023/08/19 02:46:15;;;;;;;32.60;26.75;;;22.70;99.90;;;;;;5032264;28;20359;-82
2023/08/19 02:48:41;;;;;;;33.25;28.77;;;22.70;99.90;;;;;;5031045;28;20025;-82
2023/08/19 02:51:06;;;;;;;30.45;27.35;;;22.70;99.90;;;;;;5031880;28;20030;-82
2023/08/19 02:53:32;;;;;;;30.08;25.98;;;22.70;99.90;;;;;;5031639;28;20035;-82
2023/08/19 02:55:58;;;;;;;33.25;28.25;;;22.70;99.90;;;;;;5031347;28;20033;-81
2023/08/19 02:58:24;;;;;;;31.23;27.33;;;22.70;99.90;;;;;;5031973;28;20393;-81
2023/08/19 03:00:50;;;;;;;27.50;24.80;;;22.70;99.90;;;;;;5031481;28;20087;-81
2023/08/19 03:03:16;;;;;;;29.92;25.73;;;22.70;99.90;;;;;;5031159;28;20021;-82
2023/08/19 03:05:42;;;;;;;31.55;26.85;;;22.70;99.90;;;;;;5031663;28;20026;-81
2023/08/19 03:08:08;;;;;;;40.65;26.30;;;22.80;99.90;;;;;;5032182;28;20017;-81
2023/08/19 03:10:39;;;;;;;28.55;25.50;;;22.70;99.90;;;;;;5031042;28;20110;-82
2023/08/19 03:13:06;;;;;;;31.42;26.23;;;22.70;99.90;;;;;;5031872;28;20106;-82
2023/08/19 03:15:33;;;;;;;34.97;27.27;;;22.70;99.90;;;;;;5031662;28;20112;-81
2023/08/19 03:17:59;;;;;;;33.42;26.95;;;22.80;99.90;;;;;;5031393;28;20096;-82
2023/08/19 03:20:25;;;;;;;36.22;27.48;;;22.70;99.90;;;;;;5031767;28;20068;-81
2023/08/19 03:22:51;;;;;;;30.70;26.55;;;22.70;99.90;;;;;;5030531;28;20412;-82
2023/08/19 03:25:16;;;;;;;32.97;27.30;;;22.70;99.90;;;;;;5031927;28;20083;-82
2023/08/19 03:27:42;;;;;;;30.45;26.70;;;22.70;99.90;;;;;;5031464;28;20030;-82
2023/08/19 03:30:09;;;;;;;32.10;27.27;;;22.70;99.90;;;;;;5030959;28;20099;-82
2023/08/19 03:32:34;;;;;;;31.65;27.05;;;22.70;99.90;;;;;;5031055;28;20065;-82
2023/08/19 03:35:00;;;;;;;37.28;27.05;;;22.70;99.90;;;;;;5031448;28;20018;-81
2023/08/19 03:37:26;;;;;;;33.13;26.55;;;22.70;99.90;;;;;;5030823;28;20108;-81
2023/08/19 03:39:51;;;;;;;29.95;26.95;;;22.70;99.90;;;;;;5031206;28;20029;-81
2023/08/19 03:42:17;;;;;;;32.70;27.23;;;22.70;99.90;;;;;;5031778;28;20025;-81
2023/08/19 03:44:43;;;;;;;29.25;26.20;;;22.70;99.90;;;;;;5030481;28;20523;-82
2023/08/19 03:47:11;;;;;;;30.40;26.60;;;22.70;99.90;;;;;;5031450;28;20026;-82
2023/08/19 03:49:37;;;;;;;30.48;26.20;;;22.60;99.90;;;;;;5033446;28;20037;-83
2023/08/19 03:52:04;;;;;;;30.17;26.90;;;22.60;99.90;;;;;;5034465;28;20029;-82
2023/08/19 03:54:30;;;;;;;30.00;25.33;;;22.60;99.90;;;;;;5035179;28;20029;-83
2023/08/19 03:56:56;;;;;;;29.20;25.85;;;22.60;99.90;;;;;;5035048;28;20164;-82
2023/08/19 03:59:21;;;;;;;28.98;26.02;;;22.70;99.90;;;;;;5034468;28;20025;-82
2023/08/19 04:01:47;;;;;;;29.17;25.20;;;22.60;99.90;;;;;;5034807;28;20501;-82
2023/08/19 04:04:12;;;;;;;28.83;25.35;;;22.70;99.90;;;;;;5035163;28;20021;-82
2023/08/19 04:06:38;;;;;;;26.58;23.90;;;22.70;99.90;;;;;;5033968;28;20112;-82
2023/08/19 04:09:05;;;;;;;25.35;22.42;;;22.70;99.90;;;;;;5034869;28;20112;-82
2023/08/19 04:11:30;;;;;;;28.25;22.85;;;22.70;99.90;;;;;;5035014;28;20026;-82
2023/08/19 04:13:56;;;;;;;24.95;22.23;;;22.90;99.90;;;;;;5034248;28;20044;-82
2023/08/19 04:16:23;;;;;;;23.92;21.35;;;22.70;99.90;;;;;;5034888;28;20136;-82
2023/08/19 04:18:49;;;;;;;25.33;22.73;;;22.70;99.90;;;;;;5034441;28;20075;-82
2023/08/19 04:21:16;;;;;;;25.05;22.33;;;22.70;99.90;;;;;;5034135;28;20083;-83
2023/08/19 04:23:41;;;;;;;30.15;24.73;;;23.20;99.90;;;;;;5034496;28;20108;-82
2023/08/19 04:26:07;;;;;;;26.88;23.92;;;22.70;99.90;;;;;;5033809;28;20017;-82
2023/08/19 04:28:33;;;;;;;31.35;23.88;;;22.70;99.90;;;;;;5034344;28;20037;-82
2023/08/19 04:31:07;;;;;;;27.80;23.65;;;22.70;99.90;;;;;;5034068;28;20052;-82
2023/08/19 04:33:34;;;;;;;27.48;24.42;;;22.70;99.90;;;;;;5033567;28;20030;-82
2023/08/19 04:36:00;;;;;;;29.30;22.73;;;22.60;99.90;;;;;;5034241;28;20530;-83
2023/08/19 04:38:26;;;;;;;24.45;21.80;;;22.70;99.90;;;;;;5034599;28;20030;-82
2023/08/19 04:40:51;;;;;;;23.90;21.55;;;22.60;99.90;;;;;;5033327;28;20029;-82
2023/08/19 04:43:21;;;;;;;26.17;20.98;;;22.60;99.90;;;;;;5034455;28;20022;-82
2023/08/19 04:45:47;;;;;;;24.63;22.15;;;22.60;99.90;;;;;;5033988;28;20084;-82
2023/08/19 04:48:13;;;;;;;22.75;20.63;;;22.50;99.90;;;;;;5033454;28;20481;-82
2023/08/19 04:50:39;;;;;;;25.88;20.92;;;22.60;99.90;;;;;;5033825;28;20079;-82
2023/08/19 04:53:06;;;;;;;23.60;20.58;;;22.60;99.90;;;;;;5034302;28;20049;-83
2023/08/19 04:55:31;;;;;;;24.17;21.70;;;22.60;99.90;;;;;;5033273;28;20465;-83
2023/08/19 04:57:57;;;;;;;23.65;20.75;;;22.60;99.90;;;;;;5034127;28;20039;-82
2023/08/19 05:00:23;;;;;;;25.30;21.83;;;22.60;99.90;;;;;;5032981;28;20036;-82
2023/08/19 05:02:49;;;;;;;24.90;21.85;;;22.60;99.90;;;;;;5033139;28;20029;-83
2023/08/19 05:05:15;;;;;;;26.77;22.05;;;22.60;99.90;;;;;;5034212;28;20040;-82
2023/08/19 05:07:40;;;;;;;24.65;22.05;;;22.60;99.90;;;;;;5033654;28;20025;-82
2023/08/19 05:10:07;;;;;;;23.90;21.38;;;22.50;99.90;;;;;;5033211;28;20073;-82
2023/08/19 05:12:33;;;;;;;23.30;20.67;;;22.60;99.90;;;;;;5033680;28;20040;-82
2023/08/19 05:14:58;;;;;;;22.83;20.42;;;22.60;99.90;;;;;;5033714;28;20048;-82
2023/08/19 05:17:24;;;;;;;25.92;19.92;;;22.60;99.90;;;;;;5032912;28;20025;-82
2023/08/19 05:19:49;;;;;;;22.20;19.98;;;22.60;99.90;;;;;;5033203;28;20033;-82
2023/08/19 05:22:15;;;;;;;27.27;20.20;;;22.60;99.90;;;;;;5033106;28;20029;-82
2023/08/19 05:24:41;;;;;;;30.85;20.33;;;22.60;99.90;;;;;;5033229;28;20025;-82
2023/08/19 05:27:07;;;;;;;22.10;19.65;;;22.60;99.90;;;;;;5033483;28;20025;-82
2023/08/19 05:29:32;;;;;;;23.42;19.88;;;22.60;99.90;;;;;;5032553;28;20097;-82
2023/08/19 05:31:58;;;;;;;22.98;19.55;;;23.50;99.90;;;;;;5033115;28;20049;-82
2023/08/19 05:34:25;;;;;;;22.80;20.52;;;22.60;99.90;;;;;;5033653;28;20383;-83
2023/08/19 05:36:50;;;;;;;21.90;19.60;;;22.60;99.90;;;;;;5032107;28;20029;-82
2023/08/19 05:39:16;;;;;;;20.13;18.20;;;22.60;99.90;;;;;;5033395;28;20036;-82
2023/08/19 05:41:42;;;;;;;22.27;20.05;;;22.70;99.90;;;;;;5032913;28;20436;-82
2023/08/19 05:44:08;;;;;;;21.38;19.15;;;22.60;99.90;;;;;;5032410;28;20037;-83
2023/08/19 05:46:33;;;;;;;23.60;19.60;;;22.60;99.90;;;;;;5032838;28;20080;-82
2023/08/19 05:48:59;;;;;;;23.95;21.45;;;22.60;99.90;;;;;;5033165;28;20037;-82
2023/08/19 05:51:25;;;;;;;20.95;18.85;;;22.70;99.90;;;;;;5032582;28;20025;-83
2023/08/19 05:53:50;;;;;;;21.90;19.63;;;22.60;99.90;;;;;;5032630;28;20461;-82
2023/08/19 05:56:16;;;;;;;22.60;19.98;;;22.60;99.90;;;;;;5033057;28;20030;-82
2023/08/19 05:58:41;;;;;;;20.88;17.75;;;22.60;99.90;;;;;;5031895;28;20033;-82
2023/08/19 06:01:07;;;;;;;22.58;19.20;;;22.60;99.90;;;;;;5032878;28;20029;-82
2023/08/19 06:03:33;;;;;;;23.30;18.17;;;22.70;99.90;;;;;;5032687;28;20021;-82
2023/08/19 06:06:05;;;;;;;21.08;18.23;;;22.70;99.90;;;;;;5032043;28;20110;-82
2023/08/19 06:08:31;;;;;;;20.20;18.08;;;22.70;99.90;;;;;;5032564;28;20489;-82
2023/08/19 06:11:06;;;;;;;20.48;17.98;;;22.70;99.90;;;;;;5032477;28;20110;-82
2023/08/19 06:13:36;;;;;;;22.20;19.98;;;23.30;99.90;;;;;;5031644;28;20036;-82
2023/08/19 06:16:03;;;;;;;19.92;18.02;;;22.70;99.90;;;;;;5032711;28;20030;-82
2023/08/19 06:18:29;;;;;;;19.85;17.88;;;22.70;99.90;;;;;;5031526;28;20053;-82
2023/08/19 06:20:56;;;;;;;19.73;17.73;;;22.70;99.90;;;;;;5032500;28;20034;-83
2023/08/19 06:23:22;;;;;;;19.42;17.48;;;22.80;99.90;;;;;;5032408;28;20029;-82
2023/08/19 06:25:49;;;;;;;19.48;17.67;;;22.80;99.90;;;;;;5031462;28;20059;-82
2023/08/19 06:28:19;;;;;;;20.15;18.00;;;22.80;99.90;;;;;;5032251;28;20029;-82
2023/08/19 06:30:45;;;;;;;20.17;18.15;;;22.80;99.90;;;;;;5031776;28;20489;-82
2023/08/19 06:33:12;;;;;;;22.80;18.40;;;22.90;99.90;;;;;;5031524;28;20477;-82
2023/08/19 06:35:38;;;;;;;21.10;18.85;;;22.90;99.90;;;;;;5031829;28;20026;-82
2023/08/19 06:38:07;;;;;;;20.73;18.10;;;23.00;99.90;;;;;;5032118;28;20024;-82
2023/08/19 06:40:36;;;;;;;20.70;18.60;;;23.00;99.90;;;;;;5031703;28;20056;-82
2023/08/19 06:43:03;;;;;;;20.23;17.88;;;23.00;99.90;;;;;;5032197;28;20028;-82
2023/08/19 06:45:29;;;;;;;18.65;16.63;;;23.10;99.90;;;;;;5037949;28;20025;-82
2023/08/19 06:47:57;;;;;;;18.40;16.67;;;23.10;99.90;;;;;;5034486;28;20076;-82
2023/08/19 06:50:23;;;;;;;23.38;16.83;;;23.10;99.90;;;;;;5032237;28;20041;-82
2023/08/19 06:52:49;;;;;;;19.30;17.30;;;23.10;99.90;;;;;;5031696;28;20029;-81
2023/08/19 06:55:15;;;;;;;20.38;17.10;;;23.10;99.90;;;;;;5031225;28;20037;-82
2023/08/19 06:57:52;;;;;;;23.20;17.95;;;23.10;99.90;;;;;;5031601;28;20473;-82
2023/08/19 07:00:20;;;;;;;18.27;16.42;;;23.20;99.90;;;;;;5032364;28;20029;-82
2023/08/19 07:02:47;;;;;;;19.50;16.63;;;23.20;99.90;;;;;;5031017;28;20053;-82
2023/08/19 07:05:15;;;;;;;19.98;17.55;;;23.20;99.90;;;;;;5031912;28;20036;-83
2023/08/19 07:07:49;;;;;;;19.20;16.65;;;23.20;99.90;;;;;;5030698;28;20034;-82
2023/08/19 07:10:20;;;;;;;17.80;16.13;;;23.20;99.90;;;;;;5031944;28;20042;-82
2023/08/19 07:12:47;;;;;;;18.98;16.02;;;23.20;99.90;;;;;;5031461;28;20074;-82
2023/08/19 07:15:13;;;;;;;18.20;16.40;;;23.30;99.90;;;;;;5030705;28;20384;-83
2023/08/19 07:17:47;;;;;;;19.38;16.40;;;23.30;99.90;;;;;;5031278;28;20040;-82
2023/08/19 07:20:22;;;;;;;19.90;17.65;;;23.30;99.90;;;;;;5031508;28;20033;-82
2023/08/19 07:22:51;;;;;;;19.95;17.85;;;23.30;99.90;;;;;;5030836;28;20036;-82
2023/08/19 07:25:17;;;;;;;21.75;17.60;;;23.30;99.90;;;;;;5035163;28;20469;-83
2023/08/19 07:27:44;;;;;;;21.02;17.27;;;23.30;99.90;;;;;;5035245;28;20034;-83
2023/08/19 07:30:10;;;;;;;21.00;17.38;;;24.00;99.90;;;;;;5035127;28;20551;-83
2023/08/19 07:32:36;;;;;;;19.33;17.33;;;23.30;99.90;;;;;;5035044;28;20053;-83
2023/08/19 07:35:06;;;;;;;19.40;17.48;;;23.30;99.90;;;;;;5035562;28;20080;-82
2023/08/19 07:37:32;;;;;;;19.38;17.33;;;23.30;99.90;;;;;;5034638;28;20083;-82
2023/08/19 07:39:59;;;;;;;18.13;16.10;;;23.20;99.90;;;;;;5035045;28;20481;-82
2023/08/19 07:42:25;;;;;;;19.63;17.55;;;23.40;99.90;;;;;;5035433;28;20104;-83
2023/08/19 07:44:51;;;;;;;18.38;16.52;;;23.40;99.90;;;;;;5034146;28;20029;-82
2023/08/19 07:47:16;;;;;;;19.63;17.55;;;23.40;99.90;;;;;;5035268;28;20021;-82
2023/08/19 07:49:42;;;;;;;18.48;16.58;;;23.40;99.90;;;;;;5034961;28;20037;-83
2023/08/19 07:52:07;;;;;;;18.10;16.27;;;23.40;99.90;;;;;;5034525;28;20469;-82
2023/08/19 07:54:33;;;;;;;19.25;16.35;;;23.60;99.90;;;;;;5034880;28;20044;-82
2023/08/19 07:56:59;;;;;;;19.45;17.55;;;23.40;99.90;;;;;;5034384;28;20029;-82
2023/08/19 07:59:25;;;;;;;20.75;17.27;;;23.50;99.90;;;;;;5035254;28;20028;-82
2023/08/19 08:01:52;;;;;;;18.30;16.58;;;23.50;99.90;;;;;;5034903;28;20026;-82
2023/08/19 08:04:17;;;;;;;19.65;17.65;;;23.50;99.90;;;;;;5034427;28;20036;-82
2023/08/19 08:06:44;;;;;;;20.25;16.67;;;23.50;99.90;;;;;;5034959;28;20070;-83
2023/08/19 08:09:10;;;;;;;24.38;17.67;;;23.50;99.90;;;;;;5034711;28;20036;-82
2023/08/19 08:11:36;;;;;;;21.77;17.67;;;23.50;99.90;;;;;;5033861;28;20034;-82
2023/08/19 08:14:02;;;;;;;19.58;17.50;;;23.50;99.90;;;;;;5034623;28;20032;-83
2023/08/19 08:16:27;;;;;;;18.05;16.25;;;23.50;99.90;;;;;;5034578;28;20029;-82
2023/08/19 08:18:53;;;;;;;23.15;17.30;;;23.50;99.90;;;;;;5033556;28;20022;-82
2023/08/19 08:21:20;;;;;;;19.60;16.58;;;23.60;99.90;;;;;;5034716;28;20037;-82
2023/08/19 08:23:45;;;;;;;19.17;16.50;;;23.50;99.90;;;;;;5034200;28;20024;-83
2023/08/19 08:26:11;;;;;;;19.65;16.40;;;23.50;99.90;;;;;;5033595;28;20116;-82
2023/08/19 08:28:37;;;;;;;17.73;15.88;;;23.60;99.90;;;;;;5034101;28;20033;-82
2023/08/19 08:31:03;;;;;;;17.13;14.35;;;23.70;99.90;;;;;;5034234;28;20054;-82
2023/08/19 08:33:28;;;;;;;19.30;15.82;;;23.80;99.90;;;;;;5034201;28;20017;-82
2023/08/19 08:35:54;;;;;;;29.85;16.65;;;23.70;99.90;;;;;;5033721;28;20025;-82
2023/08/19 08:38:19;;;;;;;18.20;15.90;;;23.70;99.90;;;;;;5034281;28;20029;-82
2023/08/19 08:40:45;;;;;;;21.73;16.35;;;23.80;99.90;;;;;;5033281;28;20029;-82
2023/08/19 08:43:13;;;;;;;21.35;17.88;;;23.80;99.90;;;;;;5034516;28;20080;-82
2023/08/19 08:45:40;;;;;;;22.33;17.33;;;23.90;99.90;;;;;;5033826;28;20026;-82
2023/08/19 08:48:09;;;;;;;23.88;17.80;;;24.00;99.90;;;;;;5033434;28;20483;-82
2023/08/19 08:50:35;;;;;;;22.60;17.93;;;23.90;99.90;;;;;;5033769;28;20448;-82
2023/08/19 08:53:01;;;;;;;22.58;17.85;;;24.00;99.90;;;;;;5034077;28;20310;-82
2023/08/19 08:55:27;;;;;;;21.10;17.35;;;24.00;99.90;;;;;;5033644;28;20026;-82
2023/08/19 08:57:54;;;;;;;21.73;16.05;;;24.00;99.90;;;;;;5033603;28;20025;-82
2023/08/19 09:00:19;;;;;;;19.48;15.95;;;24.00;99.90;;;;;;5033240;28;20079;-82
2023/08/19 09:02:46;;;;;;;17.23;14.80;;;24.10;99.90;;;;;;5033402;28;20417;-82
2023/08/19 09:05:13;;;;;;;16.02;14.40;;;24.20;99.90;;;;;;5034040;28;20033;-82
2023/08/19 09:07:41;;;;;;;18.15;14.52;;;24.30;99.90;;;;;;5033039;28;20037;-82
2023/08/19 09:10:13;;;;;;;16.45;14.73;;;24.20;99.90;;;;;;5034238;28;20034;-82
2023/08/19 09:12:44;;;;;;;15.32;13.75;;;24.20;99.90;;;;;;5033261;28;20033;-82
2023/08/19 09:15:13;;;;;;;14.35;12.70;;;24.20;99.90;;;;;;5032819;28;20026;-82
2023/08/19 09:17:40;;;;;;;14.65;13.07;;;24.20;99.90;;;;;;5033187;28;20029;-82
2023/08/19 09:20:08;;;;;;;14.27;12.68;;;24.10;99.90;;;;;;5033485;28;20029;-83
2023/08/19 09:22:37;;;;;;;15.30;13.70;;;24.20;99.90;;;;;;5032502;28;20033;-82
2023/08/19 09:25:06;;;;;;;16.52;13.38;;;24.40;99.90;;;;;;5033309;28;20025;-82
2023/08/19 09:27:32;;;;;;;15.35;13.00;;;24.20;99.90;;;;;;5033178;28;20030;-82
2023/08/19 09:29:58;;;;;;;20.73;13.50;;;24.20;99.90;;;;;;5032651;28;20057;-82
2023/08/19 09:32:31;;;;;;;19.83;13.75;;;24.00;99.90;;;;;;5033189;28;20049;-82
2023/08/19 09:35:08;;;;;;;16.35;13.95;;;24.10;99.90;;;;;;5033133;28;20064;-82
2023/08/19 09:37:35;;;;;;;14.18;12.55;;;24.10;99.90;;;;;;5032315;28;20512;-82
2023/08/19 09:40:11;;;;;;;13.35;11.80;;;24.10;99.90;;;;;;5033135;28;20112;-81
2023/08/19 09:42:45;;;;;;;14.38;10.80;;;24.20;99.90;;;;;;5032448;28;20033;-82
2023/08/19 09:45:19;;;;;;;10.30;9.40;;;24.20;99.90;;;;;;5033170;28;20462;-82
2023/08/19 09:47:49;;;;;;;13.77;9.57;;;24.10;99.90;;;;;;5032052;28;20029;-82
2023/08/19 09:50:19;;;;;;;10.57;9.25;;;24.20;99.90;;;;;;5032106;28;20110;-82
2023/08/19 09:52:52;;;;;;;;;;;24.20;99.90;;;;;;5032945;28;20061;-82
2023/08/19 09:55:25;;;;;;;8.38;7.57;;;24.10;99.90;;;;;;5033064;28;20383;-82
2023/08/19 09:57:51;;;;;;;9.20;7.50;;;24.30;99.90;;;;;;5032251;28;20369;-82
2023/08/19 10:00:16;;;;;;;11.13;8.10;;;24.20;99.90;;;;;;5032863;28;20112;-82
2023/08/19 10:02:42;;;;;;;11.38;7.88;;;24.10;99.90;;;;;;5032464;28;20036;-82
2023/08/19 10:05:08;;;;;;;9.80;7.15;;;24.20;99.90;;;;;;5032178;28;20465;-82
2023/08/19 10:07:37;;;;;;;8.18;7.45;;;24.20;99.90;;;;;;5032637;28;20183;-82
2023/08/19 10:10:04;;;;;;;11.38;7.43;;;24.30;99.90;;;;;;5032594;28;20099;-82
2023/08/19 10:12:34;;;;;;;9.50;7.18;;;24.30;99.90;;;;;;5031570;28;20033;-82
2023/08/19 10:15:02;;;;;;;9.65;6.80;;;24.40;99.90;;;;;;5032337;28;20026;-82
2023/08/19 10:17:32;;;;;;;7.65;6.95;;;24.30;99.90;;;;;;5032480;28;20033;-82
2023/08/19 10:20:05;;;;;;;8.15;7.35;;;24.20;99.90;;;;;;5032360;28;20017;-82
2023/08/19 10:22:34;;;;;;;8.52;7.22;;;24.20;99.90;;;;;;5032305;28;20434;-82
2023/08/19 10:25:00;;;;;;;7.78;6.80;;;24.20;99.90;;;;;;5031535;28;20064;-82
2023/08/19 10:27:26;;;;;;;7.00;6.40;;;24.20;99.90;;;;;;5032346;28;20032;-83
2023/08/19 10:29:58;;;;;;;7.47;5.43;;;24.20;99.90;;;;;;5031909;28;20459;-82
2023/08/19 10:32:29;;;;;;;6.13;5.53;;;24.10;99.90;;;;;;5031459;28;20080;-82
2023/08/19 10:35:08;;;;;;;6.88;6.18;;;24.10;99.90;;;;;;5032215;28;20100;-82
2023/08/19 10:37:41;;;;;;;7.90;5.10;;;24.00;99.90;;;;;;5032085;28;20049;-82
2023/08/19 10:40:08;;;;;;;6.30;5.10;;;24.00;99.90;;;;;;5031430;28;20027;-82
2023/08/19 10:42:35;;;;;;;5.47;4.97;;;24.00;99.90;;;;;;5032161;28;20103;-82
2023/08/19 10:45:00;;;;;;;6.05;5.47;;;24.00;99.90;;;;;;5032128;28;20025;-82
2023/08/19 10:47:26;;;;;;;7.53;6.10;;;24.00;99.90;;;;;;5031225;28;20029;-82
2023/08/19 10:50:01;;;;;;;6.80;6.20;;;24.30;99.90;;;;;;5031836;28;20033;-82
2023/08/19 10:52:26;;;;;;;7.45;6.68;;;24.00;99.90;;;;;;5032281;28;20044;-82
2023/08/19 10:54:52;;;;;;;8.52;7.70;;;24.00;99.90;;;;;;5031281;28;20457;-82
2023/08/19 10:57:22;;;;;;;9.95;7.45;;;24.10;99.90;;;;;;5032059;28;20045;-82
2023/08/19 10:59:53;;;;;;;7.80;7.00;;;24.10;99.90;;;;;;5031031;28;20095;-82
2023/08/19 11:02:18;;;;;;;12.93;10.20;;;24.10;99.90;;;;;;5032058;28;20047;-82
2023/08/19 11:04:47;;;;;;;14.02;10.70;;;24.10;99.90;;;;;;5031627;28;20040;-82
2023/08/19 11:07:13;;;;;;;13.50;9.25;;;24.20;99.90;;;;;;5031173;28;20469;-82
2023/08/19 11:09:44;;;;;;;10.00;9.00;;;24.40;99.90;;;;;;5031235;28;20045;-82
2023/08/19 11:12:11;;;;;;;10.25;8.80;;;24.00;99.90;;;;;;5031694;28;20123;-82
2023/08/19 11:14:38;;;;;;;9.32;8.02;;;24.00;99.90;;;;;;5031106;28;20032;-82
2023/08/19 11:17:04;;;;;;;11.32;8.20;;;24.00;99.90;;;;;;5031728;28;20041;-82
2023/08/19 11:19:31;;;;;;;12.60;8.85;;;24.10;99.90;;;;;;5031468;28;20033;-81
2023/08/19 11:21:57;;;;;;;11.07;9.43;;;24.00;99.90;;;;;;5030981;28;20018;-83
2023/08/19 11:24:33;;;;;;;10.88;9.75;;;23.90;99.90;;;;;;5031912;28;20033;-82
2023/08/19 11:27:00;;;;;;;12.25;7.88;;;23.90;99.90;;;;;;5033167;28;20497;-82
2023/08/19 11:29:26;;;;;;;11.77;6.35;;;23.90;99.90;;;;;;5036143;28;20042;-82
2023/08/19 11:31:52;;;;;;;14.68;5.35;;;23.80;99.90;;;;;;5031232;28;20446;-83
2023/08/19 11:34:17;;;;;;;5.53;4.55;;;23.80;99.90;;;;;;5031428;28;20026;-82
2023/08/19 11:36:44;;;;;;;10.50;4.40;;;23.80;99.90;;;;;;5030407;28;20025;-82
2023/08/19 11:39:10;;;;;;;8.93;3.78;;;23.70;99.90;;;;;;5031168;28;20389;-82
2023/08/19 11:41:36;;;;;;;7.22;3.83;;;23.70;99.90;;;;;;5030817;28;20489;-82
2023/08/19 11:44:03;;;;;;;7.28;3.70;;;23.70;99.90;;;;;;5030613;28;20033;-82
2023/08/19 11:46:33;;;;;;;9.95;3.65;;;23.60;99.90;;;;;;5030960;28;20029;-82
2023/08/19 11:49:08;;;;;;;7.25;3.00;;;23.60;99.90;;;;;;5030618;28;20338;-82
2023/08/19 11:51:38;;;;;;;5.20;2.97;;;23.60;99.90;;;;;;5031211;28;20060;-82
2023/08/19 11:54:07;;;;;;;5.85;2.80;;;23.60;99.90;;;;;;5031388;28;20025;-82
2023/08/19 11:56:49;;;;;;;3.53;2.00;;;23.60;99.90;;;;;;5030247;28;20040;-82
2023/08/19 11:59:15;;;;;;;6.50;2.00;;;23.50;99.90;;;;;;5031053;28;20067;-82
2023/08/19 12:01:41;;;;;;;6.07;2.28;;;23.50;99.90;;;;;;5030783;28;20029;-82
2023/08/19 12:04:11;;;;;;;2.92;1.45;;;23.60;99.90;;;;;;5030530;28;20166;-82
2023/08/19 12:06:37;;;;;;;;;;;23.30;99.90;;;;;;5031270;28;20060;-82
2023/08/19 12:09:04;;;;;;;5.30;1.80;;;23.20;99.90;;;;;;5030915;28;19948;-82
2023/08/19 12:11:30;;;;;;;5.35;1.83;;;23.30;99.90;;;;;;5033685;28;20037;-81
2023/08/19 12:13:56;;;;;;;9.25;1.67;;;23.30;99.90;;;;;;5034539;28;20057;-81
2023/08/19 12:16:22;;;;;;;3.72;1.80;;;23.20;99.90;;;;;;5034985;28;20033;-81
2023/08/19 12:18:48;;;;;;;5.20;1.33;;;23.20;99.90;;;;;;5033705;28;20531;-82
2023/08/19 12:21:14;;;;;;;6.50;1.52;;;23.20;99.90;;;;;;5034892;28;20037;-82
2023/08/19 12:23:39;;;;;;;5.75;2.38;;;23.10;99.90;;;;;;5034257;28;20021;-81
2023/08/19 12:26:05;;;;;;;6.88;1.77;;;23.50;99.90;;;;;;5033901;28;20029;-82
2023/08/19 12:28:30;;;;;;;10.05;2.13;;;23.20;99.90;;;;;;5034154;28;20373;-81
2023/08/19 12:30:57;;;;;;;8.10;2.45;;;22.80;99.90;;;;;;5034287;28;20056;-81